createdAt,value
2018-07-22T00:01:00.208Z,11.28
2018-07-22T00:04:24.685Z,9.95
2018-07-22T00:07:55.643Z,10.32
2018-07-22T00:11:20.177Z,9.98
2018-07-22T00:14:44.675Z,12.78
2018-07-22T00:18:09.139Z,11.63
2018-07-22T00:21:33.617Z,10.58
2018-07-22T00:24:58.069Z,11.88
2018-07-22T00:28:22.510Z,9.80
2018-07-22T00:31:47.029Z,10.18
2018-07-22T00:35:12.334Z,10.23
2018-07-22T00:38:36.805Z,11.85
2018-07-22T00:42:01.288Z,10.93
2018-07-22T00:45:25.769Z,11.28
2018-07-22T00:48:50.197Z,11.18
2018-07-22T00:52:14.669Z,11.55
2018-07-22T00:55:39.133Z,11.08
2018-07-22T00:59:03.572Z,10.72
2018-07-22T01:02:28.075Z,10.58
2018-07-22T01:05:52.551Z,11.25
2018-07-22T01:09:16.983Z,10.75
2018-07-22T01:12:41.438Z,10.72
2018-07-22T01:16:05.957Z,10.68
2018-07-22T01:19:30.432Z,10.03
2018-07-22T01:22:54.897Z,10.60
2018-07-22T01:26:19.333Z,12.40
2018-07-22T01:29:43.776Z,12.15
2018-07-22T01:33:08.266Z,13.32
2018-07-22T01:36:32.740Z,13.20
2018-07-22T01:39:57.178Z,11.00
2018-07-22T01:43:21.675Z,11.83
2018-07-22T01:46:46.076Z,12.58
2018-07-22T01:50:10.520Z,11.10
2018-07-22T01:53:34.956Z,13.58
2018-07-22T01:56:59.392Z,13.62
2018-07-22T02:00:23.831Z,13.25
2018-07-22T02:03:48.275Z,15.63
2018-07-22T02:07:12.714Z,14.10
2018-07-22T02:10:37.184Z,16.05
2018-07-22T02:14:01.609Z,15.15
2018-07-22T02:17:26.095Z,15.13
2018-07-22T02:20:50.590Z,15.08
2018-07-22T02:24:21.744Z,17.10
2018-07-22T02:27:46.231Z,15.45
2018-07-22T02:31:10.713Z,16.15
2018-07-22T02:34:35.207Z,13.93
2018-07-22T02:37:59.706Z,16.30
2018-07-22T02:41:24.181Z,15.78
2018-07-22T02:44:48.621Z,15.80
2018-07-22T02:48:13.085Z,16.77
2018-07-22T02:51:37.628Z,17.90
2018-07-22T02:55:02.035Z,16.00
2018-07-22T02:58:26.594Z,16.73
2018-07-22T03:01:51.132Z,16.97
2018-07-22T03:05:15.577Z,17.02
2018-07-22T03:08:40.086Z,15.95
2018-07-22T03:12:04.607Z,15.93
2018-07-22T03:15:29.070Z,18.67
2018-07-22T03:18:53.238Z,16.55
2018-07-22T03:22:17.745Z,18.62
2018-07-22T03:25:42.193Z,17.92
2018-07-22T03:29:06.687Z,18.07
2018-07-22T03:32:31.267Z,18.35
2018-07-22T03:35:55.777Z,19.12
2018-07-22T03:39:20.269Z,22.20
2018-07-22T03:42:44.759Z,21.50
2018-07-22T03:46:09.201Z,21.37
2018-07-22T03:49:33.650Z,22.40
2018-07-22T03:52:58.114Z,22.42
2018-07-22T03:56:22.525Z,23.30
2018-07-22T03:59:47.126Z,21.35
2018-07-22T04:03:11.597Z,23.90
2018-07-22T04:06:36.067Z,23.25
2018-07-22T04:10:00.532Z,25.20
2018-07-22T04:13:24.980Z,26.12
2018-07-22T04:16:49.437Z,24.20
2018-07-22T04:20:13.893Z,25.97
2018-07-22T04:23:38.340Z,28.30
2018-07-22T04:27:02.772Z,25.85
2018-07-22T04:30:27.223Z,27.00
2018-07-22T04:33:51.659Z,25.68
2018-07-22T04:37:16.135Z,26.57
2018-07-22T04:40:40.581Z,26.50
2018-07-22T04:44:05.177Z,27.42
2018-07-22T04:47:29.657Z,29.40
2018-07-22T04:50:54.509Z,28.95
2018-07-22T04:54:18.982Z,29.48
2018-07-22T04:57:43.421Z,30.70
2018-07-22T05:01:07.954Z,28.67
2018-07-22T05:04:32.425Z,28.75
2018-07-22T05:07:56.888Z,29.72
2018-07-22T05:11:21.323Z,29.23
2018-07-22T05:14:45.799Z,29.50
2018-07-22T05:18:10.268Z,31.73
2018-07-22T05:21:34.712Z,31.37
2018-07-22T05:24:59.172Z,29.37
2018-07-22T05:28:23.660Z,29.42
2018-07-22T05:31:48.070Z,31.23
2018-07-22T05:35:12.513Z,31.62
2018-07-22T05:38:36.937Z,30.50
2018-07-22T05:42:01.449Z,28.95
2018-07-22T05:45:25.912Z,29.65
2018-07-22T05:48:50.415Z,29.90
2018-07-22T05:52:14.895Z,28.38
2018-07-22T05:55:39.387Z,29.92
2018-07-22T05:59:03.887Z,29.23
2018-07-22T06:02:28.377Z,27.05
2018-07-22T06:05:51.903Z,27.60
2018-07-22T06:09:16.354Z,28.25
2018-07-22T06:12:40.878Z,25.75
2018-07-22T06:16:05.475Z,24.80
2018-07-22T06:19:30.036Z,25.27
2018-07-22T06:22:54.507Z,25.23
2018-07-22T06:26:18.957Z,25.37
2018-07-22T06:29:43.451Z,26.90
2018-07-22T06:33:07.948Z,22.75
2018-07-22T06:36:32.390Z,18.70
2018-07-22T06:39:56.827Z,20.02
2018-07-22T06:43:21.318Z,20.32
2018-07-22T06:46:45.924Z,21.05
2018-07-22T06:50:10.335Z,20.05
2018-07-22T06:53:34.596Z,20.72
2018-07-22T06:56:59.069Z,20.32
2018-07-22T07:00:23.544Z,19.27
2018-07-22T07:03:47.989Z,16.20
2018-07-22T07:07:12.453Z,16.17
2018-07-22T07:10:36.933Z,15.23
2018-07-22T07:14:01.403Z,15.30
2018-07-22T07:17:25.899Z,12.60
2018-07-22T07:20:50.392Z,13.55
2018-07-22T07:24:14.899Z,12.28
2018-07-22T07:27:39.351Z,13.28
2018-07-22T07:31:03.809Z,12.70
2018-07-22T07:34:28.276Z,13.20
2018-07-22T07:37:52.742Z,12.23
2018-07-22T07:41:17.233Z,9.58
2018-07-22T07:44:41.678Z,10.05
2018-07-22T07:48:06.658Z,9.58
2018-07-22T07:51:31.173Z,10.13
2018-07-22T07:54:55.667Z,8.30
2018-07-22T07:58:20.136Z,8.85
2018-07-22T08:01:44.634Z,9.75
2018-07-22T08:05:09.115Z,8.40
2018-07-22T08:08:33.259Z,8.73
2018-07-22T08:11:57.689Z,8.95
2018-07-22T08:15:22.110Z,9.75
2018-07-22T08:18:46.557Z,7.90
2018-07-22T08:22:11.077Z,7.97
2018-07-22T08:25:35.506Z,8.03
2018-07-22T08:29:28.878Z,7.08
2018-07-22T08:32:53.359Z,6.90
2018-07-22T08:36:17.855Z,6.17
2018-07-22T08:39:42.331Z,7.17
2018-07-22T08:43:06.854Z,8.38
2018-07-22T08:46:31.348Z,8.20
2018-07-22T08:49:55.870Z,6.85
2018-07-22T08:53:21.363Z,6.62
2018-07-22T08:56:45.847Z,7.05
2018-07-22T09:00:10.414Z,6.87
2018-07-22T09:03:34.984Z,5.83
2018-07-22T09:06:59.491Z,6.80
2018-07-22T09:10:24.008Z,5.97
2018-07-22T09:13:48.548Z,5.55
2018-07-22T09:17:13.075Z,6.00
2018-07-22T09:20:37.644Z,6.30
2018-07-22T09:24:02.159Z,6.22
2018-07-22T09:27:26.642Z,6.20
2018-07-22T09:30:51.170Z,6.70
2018-07-22T09:34:15.745Z,5.12
2018-07-22T09:37:40.276Z,5.60
2018-07-22T09:41:04.793Z,5.10
2018-07-22T09:44:29.294Z,5.40
2018-07-22T09:47:53.773Z,4.85
2018-07-22T09:51:18.344Z,4.62
2018-07-22T09:54:42.884Z,4.53
2018-07-22T09:58:07.377Z,5.17
2018-07-22T10:01:31.930Z,4.25
2018-07-22T10:04:56.441Z,4.03
2018-07-22T10:08:20.986Z,5.35
2018-07-22T10:11:45.526Z,5.28
2018-07-22T10:15:10.505Z,4.90
2018-07-22T10:18:35.006Z,5.72
2018-07-22T10:21:59.617Z,4.80
2018-07-22T10:25:24.208Z,4.62
2018-07-22T10:28:48.723Z,5.50
2018-07-22T10:32:13.254Z,5.05
2018-07-22T10:35:37.755Z,6.12
2018-07-22T10:39:02.276Z,5.35
2018-07-22T10:42:26.876Z,5.47
2018-07-22T10:45:51.395Z,5.65
2018-07-22T10:49:15.923Z,4.87
2018-07-22T10:52:40.400Z,5.67
2018-07-22T10:56:04.955Z,6.03
2018-07-22T10:59:29.459Z,5.70
2018-07-22T11:02:54.039Z,5.53
2018-07-22T11:06:18.534Z,4.55
2018-07-22T11:09:43.003Z,6.22
2018-07-22T11:13:07.511Z,5.55
2018-07-22T11:16:31.969Z,4.97
2018-07-22T11:19:56.504Z,6.15
2018-07-22T11:23:20.974Z,7.28
2018-07-22T11:26:45.446Z,7.22
2018-07-22T11:30:09.911Z,6.40
2018-07-22T11:33:34.410Z,7.47
2018-07-22T11:36:58.881Z,5.10
2018-07-22T11:40:23.377Z,5.95
2018-07-22T11:43:47.869Z,6.47
2018-07-22T11:47:12.340Z,5.20
2018-07-22T11:50:36.847Z,6.42
2018-07-22T11:54:01.292Z,6.33
2018-07-22T11:57:25.727Z,6.90
2018-07-22T12:00:50.546Z,7.55
2018-07-22T12:04:14.971Z,6.35
2018-07-22T12:07:39.558Z,6.22
2018-07-22T12:11:04.058Z,6.00
2018-07-22T12:14:28.533Z,6.03
2018-07-22T12:17:53.063Z,6.40
2018-07-22T12:21:39.350Z,6.58
2018-07-22T12:25:03.979Z,6.30
2018-07-22T12:28:28.435Z,6.78
2018-07-22T12:31:52.912Z,6.53
2018-07-22T12:35:17.393Z,6.05
2018-07-22T12:38:41.845Z,5.85
2018-07-22T12:42:06.732Z,6.60
2018-07-22T12:45:31.206Z,6.20
2018-07-22T12:48:55.677Z,6.47
2018-07-22T12:52:20.208Z,6.95
2018-07-22T12:55:44.664Z,7.00
2018-07-22T12:59:09.145Z,5.55
2018-07-22T13:02:33.587Z,6.10
2018-07-22T13:05:58.069Z,6.85
2018-07-22T13:09:22.553Z,6.62
2018-07-22T13:12:47.113Z,6.30
2018-07-22T13:16:11.611Z,5.53
2018-07-22T13:19:36.038Z,5.05
2018-07-22T13:23:00.507Z,6.20
2018-07-22T13:26:24.977Z,7.05
2018-07-22T13:29:49.449Z,6.75
2018-07-22T13:33:13.914Z,7.50
2018-07-22T13:36:38.396Z,7.03
2018-07-22T13:40:02.888Z,7.08
2018-07-22T13:43:27.422Z,7.53
2018-07-22T13:46:51.903Z,6.50
2018-07-22T13:50:16.459Z,5.65
2018-07-22T13:53:40.983Z,6.22
2018-07-22T13:57:05.477Z,6.08
2018-07-22T14:00:29.938Z,6.33
2018-07-22T14:03:54.462Z,7.37
2018-07-22T14:07:19.062Z,7.00
2018-07-22T14:10:43.490Z,6.47
2018-07-22T14:14:08.546Z,6.72
2018-07-22T14:17:33.034Z,6.75
2018-07-22T14:20:57.573Z,7.03
2018-07-22T14:24:22.083Z,6.85
2018-07-22T14:27:46.563Z,6.97
2018-07-22T14:31:11.114Z,7.22
2018-07-22T14:34:35.599Z,6.62
2018-07-22T14:38:00.083Z,7.58
2018-07-22T14:41:24.837Z,7.53
2018-07-22T14:44:49.282Z,7.28
2018-07-22T14:48:13.784Z,8.45
2018-07-22T14:51:38.319Z,8.25
2018-07-22T14:55:02.784Z,7.10
2018-07-22T14:58:27.253Z,8.83
2018-07-22T15:01:51.708Z,7.80
2018-07-22T15:05:16.222Z,8.55
2018-07-22T15:08:40.862Z,8.13
2018-07-22T15:12:05.391Z,7.28
2018-07-22T15:15:29.872Z,6.92
2018-07-22T15:18:54.392Z,8.60
2018-07-22T15:22:18.893Z,8.33
2018-07-22T15:25:43.365Z,7.58
2018-07-22T15:29:07.895Z,7.72
2018-07-22T15:32:32.366Z,7.22
2018-07-22T15:35:56.842Z,6.28
2018-07-22T15:39:21.285Z,7.30
2018-07-22T15:42:45.808Z,8.15
2018-07-22T15:46:10.254Z,8.75
2018-07-22T15:49:34.799Z,9.03
2018-07-22T15:52:59.252Z,7.62
2018-07-22T15:56:23.724Z,7.75
2018-07-22T15:59:48.213Z,8.10
2018-07-22T16:03:12.667Z,7.92
2018-07-22T16:06:37.132Z,8.50
2018-07-22T16:10:01.597Z,7.83
2018-07-22T16:13:26.124Z,8.68
2018-07-22T16:16:50.579Z,8.65
2018-07-22T16:20:15.099Z,7.78
2018-07-22T16:23:39.700Z,8.85
2018-07-22T16:27:04.185Z,7.95
2018-07-22T16:30:28.769Z,7.60
2018-07-22T16:33:53.272Z,8.45
2018-07-22T16:37:17.733Z,9.18
2018-07-22T16:40:42.253Z,7.95
2018-07-22T16:44:07.284Z,8.30
2018-07-22T16:47:31.727Z,9.13
2018-07-22T16:50:56.185Z,9.18
2018-07-22T16:54:20.624Z,7.83
2018-07-22T16:57:45.050Z,8.18
2018-07-22T17:01:09.514Z,8.43
2018-07-22T17:04:33.978Z,8.15
2018-07-22T17:07:58.482Z,8.60
2018-07-22T17:11:23.027Z,8.83
2018-07-22T17:14:47.477Z,7.58
2018-07-22T17:18:11.624Z,8.38
2018-07-22T17:21:36.076Z,8.13
2018-07-22T17:25:00.515Z,8.15
2018-07-22T17:28:25.016Z,8.05
2018-07-22T17:31:49.476Z,9.25
2018-07-22T17:35:13.938Z,8.65
2018-07-22T17:38:38.397Z,8.53
2018-07-22T17:42:02.866Z,10.60
2018-07-22T17:45:27.327Z,9.38
2018-07-22T17:48:51.787Z,21.42
2018-07-22T17:52:16.202Z,54.98
2018-07-22T17:55:40.683Z,49.23
2018-07-22T17:59:05.185Z,16.67
2018-07-22T18:02:29.650Z,10.20
2018-07-22T18:05:54.134Z,23.42
2018-07-22T18:09:18.587Z,10.90
2018-07-22T18:12:43.049Z,10.95
2018-07-22T18:16:07.573Z,11.25
2018-07-22T18:19:31.735Z,10.70
2018-07-22T18:22:56.202Z,8.43
2018-07-22T18:26:20.714Z,12.10
2018-07-22T18:29:45.185Z,10.08
2018-07-22T18:33:09.653Z,9.30
2018-07-22T18:36:34.108Z,10.82
2018-07-22T18:39:58.565Z,7.25
2018-07-22T18:43:23.054Z,7.25
2018-07-22T18:46:47.557Z,7.25
2018-07-22T18:50:12.229Z,6.22
2018-07-22T18:53:36.762Z,5.97
2018-07-22T18:57:01.211Z,5.60
2018-07-22T19:00:25.719Z,5.22
2018-07-22T19:03:50.275Z,5.78
2018-07-22T19:07:14.724Z,5.62
2018-07-22T19:10:39.179Z,4.15
2018-07-22T19:14:03.664Z,4.50
2018-07-22T19:17:28.118Z,4.72
2018-07-22T19:20:52.593Z,4.80
2018-07-22T19:24:17.071Z,4.97
2018-07-22T19:27:41.573Z,3.90
2018-07-22T19:31:06.086Z,5.22
2018-07-22T19:34:30.544Z,4.53
2018-07-22T19:37:55.225Z,4.12
2018-07-22T19:41:19.704Z,4.67
2018-07-22T19:44:44.174Z,4.35
2018-07-22T19:48:08.744Z,3.87
2018-07-22T19:51:33.085Z,3.95
2018-07-22T19:54:57.528Z,3.33
2018-07-22T19:58:21.975Z,4.00
2018-07-22T20:01:46.447Z,3.40
2018-07-22T20:05:11.753Z,3.62
2018-07-22T20:08:36.252Z,3.12
2018-07-22T20:12:00.702Z,3.85
2018-07-22T20:15:25.173Z,3.40
2018-07-22T20:18:49.600Z,3.55
2018-07-22T20:22:14.063Z,4.62
2018-07-22T20:25:38.533Z,3.70
2018-07-22T20:29:03.062Z,3.72
2018-07-22T20:32:27.509Z,3.50
2018-07-22T20:35:51.968Z,4.03
2018-07-22T20:39:16.448Z,3.62
2018-07-22T20:42:40.911Z,3.75
2018-07-22T20:46:05.400Z,3.22
2018-07-22T20:49:29.842Z,2.95
2018-07-22T20:52:54.283Z,3.58
2018-07-22T20:56:18.847Z,4.08
2018-07-22T20:59:43.339Z,3.87
2018-07-22T21:03:07.770Z,4.08
2018-07-22T21:06:32.292Z,4.10
2018-07-22T21:09:56.734Z,3.75
2018-07-22T21:13:28.040Z,4.25
2018-07-22T21:16:52.497Z,3.98
2018-07-22T21:20:18.031Z,4.12
2018-07-22T21:23:42.497Z,3.42
2018-07-22T21:27:06.990Z,4.00
2018-07-22T21:30:31.431Z,3.85
2018-07-22T21:33:55.922Z,3.70
2018-07-22T21:37:20.687Z,4.20
2018-07-22T21:40:45.154Z,4.17
2018-07-22T21:44:09.608Z,3.87
2018-07-22T21:47:34.217Z,4.40
2018-07-22T21:50:58.695Z,4.50
2018-07-22T21:54:23.160Z,4.35
2018-07-22T21:57:47.636Z,4.30
2018-07-22T22:01:12.164Z,4.20
2018-07-22T22:04:36.662Z,4.67
2018-07-22T22:08:01.138Z,4.42
2018-07-22T22:11:25.632Z,4.83
2018-07-22T22:14:50.078Z,5.10
2018-07-22T22:18:14.590Z,5.17
2018-07-22T22:21:39.084Z,5.08
2018-07-22T22:25:03.630Z,4.40
2018-07-22T22:28:28.093Z,4.67
2018-07-22T22:31:52.583Z,4.97
2018-07-22T22:35:17.070Z,5.33
2018-07-22T22:38:41.524Z,4.85
2018-07-22T22:42:05.982Z,5.22
2018-07-22T22:45:30.447Z,5.25
2018-07-22T22:48:54.887Z,5.00
2018-07-22T22:52:19.356Z,4.97
2018-07-22T22:55:43.822Z,5.00
2018-07-22T22:59:20.684Z,5.58
2018-07-22T23:02:45.214Z,6.05
2018-07-22T23:06:09.692Z,5.55
2018-07-22T23:09:34.146Z,4.58
2018-07-22T23:12:58.628Z,6.20
2018-07-22T23:16:23.077Z,6.50
2018-07-22T23:19:47.663Z,7.20
2018-07-22T23:23:12.134Z,6.10
2018-07-22T23:26:36.631Z,5.83
2018-07-22T23:30:01.110Z,6.42
2018-07-22T23:33:25.506Z,6.40
2018-07-22T23:36:49.974Z,5.62
2018-07-22T23:40:14.464Z,5.62
2018-07-22T23:43:39.094Z,6.33
2018-07-22T23:47:03.524Z,6.95
2018-07-22T23:50:27.984Z,6.60
2018-07-22T23:53:52.416Z,6.97
2018-07-22T23:57:16.876Z,6.40
